createdAt,value
2019-01-11T00:02:34.097Z,18.60
2019-01-11T00:05:08.420Z,18.60
2019-01-11T00:07:42.307Z,18.60
2019-01-11T00:10:16.110Z,18.70
2019-01-11T00:12:49.953Z,18.50
2019-01-11T00:15:23.718Z,18.50
2019-01-11T00:17:58.559Z,18.40
2019-01-11T00:20:32.488Z,18.40
2019-01-11T00:23:06.442Z,18.30
2019-01-11T00:25:42.644Z,18.30
2019-01-11T00:28:17.758Z,18.10
2019-01-11T00:30:51.374Z,18.10
2019-01-11T00:33:26.545Z,18.10
2019-01-11T00:35:59.970Z,18.10
2019-01-11T00:38:35.222Z,18.00
2019-01-11T00:41:10.932Z,17.90
2019-01-11T00:43:44.846Z,17.90
2019-01-11T00:46:18.406Z,17.90
2019-01-11T00:48:52.014Z,17.90
2019-01-11T00:51:25.527Z,17.90
2019-01-11T00:53:59.072Z,17.90
2019-01-11T00:56:33.127Z,17.80
2019-01-11T00:59:06.742Z,17.80
2019-01-11T01:01:43.079Z,17.70
2019-01-11T01:04:16.802Z,17.60
2019-01-11T01:06:50.887Z,17.50
2019-01-11T01:09:25.708Z,17.50
2019-01-11T01:11:59.269Z,17.40
2019-01-11T01:14:34.819Z,17.40
2019-01-11T01:17:08.353Z,17.40
2019-01-11T01:19:41.917Z,17.30
2019-01-11T01:22:15.408Z,17.20
2019-01-11T01:24:49.721Z,17.30
2019-01-11T01:27:23.288Z,17.20
2019-01-11T01:29:58.602Z,17.20
2019-01-11T01:32:32.098Z,17.20
2019-01-11T01:35:05.542Z,17.20
2019-01-11T01:37:38.934Z,17.10
2019-01-11T01:40:16.343Z,17.10
2019-01-11T01:42:49.786Z,17.20
2019-01-11T01:45:24.606Z,17.00
2019-01-11T01:47:57.990Z,17.00
2019-01-11T01:50:31.530Z,17.10
2019-01-11T01:53:05.724Z,17.10
2019-01-11T01:55:39.645Z,17.10
2019-01-11T01:58:13.115Z,17.10
2019-01-11T02:00:48.466Z,17.00
2019-01-11T02:03:22.430Z,17.00
2019-01-11T02:05:56.682Z,17.00
2019-01-11T02:08:30.610Z,16.90
2019-01-11T02:11:04.675Z,17.00
2019-01-11T02:13:38.606Z,17.00
2019-01-11T02:16:14.048Z,17.00
2019-01-11T02:18:48.610Z,16.90
2019-01-11T02:21:22.039Z,16.80
2019-01-11T02:23:55.462Z,16.80
2019-01-11T02:26:28.862Z,16.90
2019-01-11T02:29:02.667Z,16.80
2019-01-11T02:31:36.101Z,16.80
2019-01-11T02:34:09.380Z,16.80
2019-01-11T02:36:44.671Z,16.80
2019-01-11T02:39:20.740Z,16.70
2019-01-11T02:41:54.348Z,16.70
2019-01-11T02:44:27.711Z,16.70
2019-01-11T02:47:01.614Z,16.60
2019-01-11T02:49:39.993Z,16.50
2019-01-11T02:52:10.244Z,16.50
2019-01-11T02:54:43.657Z,16.40
2019-01-11T02:57:18.294Z,16.40
2019-01-11T02:59:52.384Z,16.40
2019-01-11T03:02:25.866Z,16.30
2019-01-11T03:04:59.233Z,16.30
2019-01-11T03:07:32.731Z,16.30
2019-01-11T03:10:06.667Z,16.30
2019-01-11T03:12:40.591Z,16.30
2019-01-11T03:15:14.487Z,16.30
2019-01-11T03:17:48.472Z,16.30
2019-01-11T03:20:22.500Z,16.30
2019-01-11T03:22:56.494Z,16.30
2019-01-11T03:25:30.453Z,16.40
2019-01-11T03:28:06.535Z,16.40
2019-01-11T03:30:40.603Z,16.40
2019-01-11T03:33:15.919Z,16.40
2019-01-11T03:35:49.932Z,16.30
2019-01-11T03:38:24.247Z,16.40
2019-01-11T03:40:58.266Z,16.40
2019-01-11T03:43:33.260Z,16.40
2019-01-11T03:46:07.212Z,16.40
2019-01-11T03:48:41.087Z,16.40
2019-01-11T03:51:16.349Z,16.40
2019-01-11T03:53:50.040Z,16.30
2019-01-11T03:56:23.857Z,16.20
2019-01-11T03:58:57.863Z,16.20
2019-01-11T04:01:31.387Z,16.10
2019-01-11T04:04:05.407Z,16.10
2019-01-11T04:06:39.455Z,16.10
2019-01-11T04:09:14.335Z,16.00
2019-01-11T04:11:48.184Z,16.00
2019-01-11T04:14:21.945Z,16.10
2019-01-11T04:16:56.291Z,16.10
2019-01-11T04:19:30.014Z,16.00
2019-01-11T04:22:21.820Z,16.00
2019-01-11T04:25:06.829Z,15.90
2019-01-11T04:27:40.862Z,16.00
2019-01-11T04:30:18.099Z,15.90
2019-01-11T04:32:51.754Z,15.90
2019-01-11T04:35:25.543Z,15.90
2019-01-11T04:37:59.368Z,15.80
2019-01-11T04:40:34.312Z,15.80
2019-01-11T04:43:08.592Z,15.80
2019-01-11T04:45:42.588Z,15.80
2019-01-11T04:48:17.961Z,15.70
2019-01-11T04:50:52.073Z,15.80
2019-01-11T04:53:27.856Z,15.70
2019-01-11T04:56:01.676Z,15.70
2019-01-11T04:58:35.069Z,15.60
2019-01-11T05:01:09.102Z,15.60
2019-01-11T05:03:45.500Z,15.50
2019-01-11T05:06:19.247Z,15.50
2019-01-11T05:08:54.642Z,15.40
2019-01-11T05:11:28.433Z,15.30
2019-01-11T05:14:02.120Z,15.20
2019-01-11T05:16:39.427Z,15.20
2019-01-11T05:19:11.207Z,15.20
2019-01-11T05:21:45.197Z,15.20
2019-01-11T05:24:18.816Z,15.20
2019-01-11T05:26:52.463Z,15.20
2019-01-11T05:29:26.037Z,15.20
2019-01-11T05:32:00.166Z,15.20
2019-01-11T05:34:33.944Z,15.20
2019-01-11T05:37:07.989Z,15.10
2019-01-11T05:39:42.998Z,15.10
2019-01-11T05:42:16.600Z,15.00
2019-01-11T05:44:50.427Z,15.00
2019-01-11T05:47:24.009Z,15.00
2019-01-11T05:49:59.583Z,15.00
2019-01-11T05:52:33.528Z,14.90
2019-01-11T05:55:07.545Z,14.90
2019-01-11T05:57:47.244Z,14.90
2019-01-11T06:00:21.103Z,14.90
2019-01-11T06:02:54.883Z,14.80
2019-01-11T06:05:28.850Z,14.80
2019-01-11T06:08:08.870Z,14.80
2019-01-11T06:10:43.346Z,14.70
2019-01-11T06:13:17.579Z,14.80
2019-01-11T06:15:53.918Z,14.70
2019-01-11T06:18:28.278Z,14.70
2019-01-11T06:21:02.618Z,14.70
2019-01-11T06:23:37.142Z,14.70
2019-01-11T06:26:11.098Z,14.70
2019-01-11T06:28:44.707Z,14.70
2019-01-11T06:31:19.547Z,14.70
2019-01-11T06:33:53.305Z,14.70
2019-01-11T06:36:28.210Z,14.70
2019-01-11T06:39:01.876Z,14.70
2019-01-11T06:41:44.642Z,14.60
2019-01-11T06:44:18.131Z,14.60
2019-01-11T06:46:51.987Z,14.50
2019-01-11T06:49:25.517Z,14.50
2019-01-11T06:51:59.729Z,14.50
2019-01-11T06:54:34.686Z,14.50
2019-01-11T06:57:08.428Z,14.50
2019-01-11T06:59:42.263Z,14.50
2019-01-11T07:02:16.050Z,14.40
2019-01-11T07:04:49.735Z,14.40
2019-01-11T07:07:23.772Z,14.30
2019-01-11T07:09:57.387Z,14.30
2019-01-11T07:12:32.123Z,14.30
2019-01-11T07:15:05.832Z,14.40
2019-01-11T07:17:39.475Z,14.30
2019-01-11T07:20:14.123Z,14.20
2019-01-11T07:22:47.800Z,14.20
2019-01-11T07:25:21.683Z,14.20
2019-01-11T07:28:04.153Z,14.20
2019-01-11T07:30:54.611Z,14.20
2019-01-11T07:33:28.580Z,14.20
2019-01-11T07:36:23.423Z,14.20
2019-01-11T07:38:58.749Z,14.20
2019-01-11T07:41:32.418Z,14.20
2019-01-11T07:44:06.303Z,14.20
2019-01-11T07:46:40.597Z,14.20
2019-01-11T07:49:15.872Z,14.20
2019-01-11T07:51:49.941Z,14.10
2019-01-11T07:54:23.615Z,14.00
2019-01-11T07:56:59.142Z,14.10
2019-01-11T07:59:34.686Z,14.00
2019-01-11T08:02:08.594Z,14.00
2019-01-11T08:04:42.230Z,14.00
2019-01-11T08:07:15.796Z,14.10
2019-01-11T08:09:51.411Z,14.00
2019-01-11T08:12:25.311Z,14.00
2019-01-11T08:14:59.044Z,14.00
2019-01-11T08:17:32.651Z,14.00
2019-01-11T08:20:06.123Z,13.90
2019-01-11T08:22:43.983Z,13.90
2019-01-11T08:25:18.301Z,13.90
2019-01-11T08:27:52.119Z,14.00
2019-01-11T08:30:25.963Z,14.00
2019-01-11T08:33:00.084Z,14.00
2019-01-11T08:35:35.728Z,14.00
2019-01-11T08:38:09.697Z,13.90
2019-01-11T08:40:45.036Z,14.00
2019-01-11T08:43:18.635Z,14.00
2019-01-11T08:45:52.987Z,13.90
2019-01-11T08:48:26.792Z,13.90
2019-01-11T08:51:02.788Z,13.90
2019-01-11T08:53:36.138Z,13.90
2019-01-11T08:56:10.293Z,13.80
2019-01-11T08:58:44.529Z,13.80
2019-01-11T09:01:18.490Z,13.80
2019-01-11T09:03:52.015Z,13.80
2019-01-11T09:06:25.622Z,13.80
2019-01-11T09:08:59.177Z,13.80
2019-01-11T09:11:32.816Z,13.80
2019-01-11T09:14:06.295Z,13.80
2019-01-11T09:16:40.870Z,13.80
2019-01-11T09:19:14.374Z,13.80
2019-01-11T09:21:48.015Z,13.80
2019-01-11T09:24:21.499Z,13.80
2019-01-11T09:26:55.195Z,13.80
2019-01-11T09:29:28.889Z,13.70
2019-01-11T09:32:02.806Z,13.70
2019-01-11T09:34:36.311Z,13.60
2019-01-11T09:37:10.103Z,13.60
2019-01-11T09:39:43.967Z,13.60
2019-01-11T09:42:17.694Z,13.60
2019-01-11T09:44:51.434Z,13.60
2019-01-11T09:47:25.223Z,13.60
2019-01-11T09:49:58.648Z,13.60
2019-01-11T09:52:33.871Z,13.60
2019-01-11T09:55:07.675Z,13.70
2019-01-11T09:57:41.511Z,13.60
2019-01-11T10:00:19.647Z,13.60
2019-01-11T10:02:59.121Z,13.70
2019-01-11T10:05:32.892Z,13.70
2019-01-11T10:08:07.920Z,13.60
2019-01-11T10:10:41.563Z,13.60
2019-01-11T10:13:16.933Z,13.60
2019-01-11T10:15:50.624Z,13.50
2019-01-11T10:18:25.850Z,13.50
2019-01-11T10:20:59.712Z,13.50
2019-01-11T10:23:33.612Z,13.50
2019-01-11T10:26:07.204Z,13.60
2019-01-11T10:28:42.673Z,13.60
2019-01-11T10:31:16.586Z,13.60
2019-01-11T10:33:50.366Z,13.60
2019-01-11T10:36:24.323Z,13.60
2019-01-11T10:38:58.050Z,13.60
2019-01-11T10:41:32.023Z,13.50
2019-01-11T10:44:05.790Z,13.50
2019-01-11T10:46:41.688Z,13.50
2019-01-11T10:49:15.660Z,13.40
2019-01-11T10:51:49.564Z,13.30
2019-01-11T10:54:44.240Z,13.40
2019-01-11T10:57:17.974Z,13.30
2019-01-11T10:59:52.840Z,13.30
2019-01-11T11:02:27.136Z,13.30
2019-01-11T11:05:02.303Z,13.30
2019-01-11T11:07:36.172Z,13.30
2019-01-11T11:10:12.843Z,13.30
2019-01-11T11:12:48.198Z,13.30
2019-01-11T11:15:23.922Z,13.30
2019-01-11T11:17:57.643Z,13.30
2019-01-11T11:20:31.676Z,13.30
2019-01-11T11:23:05.459Z,13.30
2019-01-11T11:25:39.469Z,13.30
2019-01-11T11:28:13.428Z,13.30
2019-01-11T11:30:51.017Z,13.30
2019-01-11T11:33:23.555Z,13.30
2019-01-11T11:35:58.936Z,13.30
2019-01-11T11:38:32.923Z,13.30
2019-01-11T11:41:08.158Z,13.30
2019-01-11T11:43:42.097Z,13.30
2019-01-11T11:46:15.754Z,13.30
2019-01-11T11:48:49.563Z,13.40
2019-01-11T11:51:25.336Z,13.30
2019-01-11T11:53:59.284Z,13.30
2019-01-11T11:56:33.293Z,13.30
2019-01-11T11:59:06.875Z,13.30
2019-01-11T12:01:40.841Z,13.30
2019-01-11T12:04:15.439Z,13.30
2019-01-11T12:06:51.263Z,13.40
2019-01-11T12:09:25.388Z,13.40
2019-01-11T12:12:00.746Z,13.40
2019-01-11T12:14:36.395Z,13.40
2019-01-11T12:17:10.038Z,13.40
2019-01-11T12:19:44.082Z,13.50
2019-01-11T12:22:19.021Z,13.40
2019-01-11T12:24:52.584Z,13.40
2019-01-11T12:27:26.434Z,13.40
2019-01-11T12:30:00.163Z,13.50
2019-01-11T12:32:33.736Z,13.50
2019-01-11T12:35:07.532Z,13.50
2019-01-11T12:37:41.430Z,13.50
2019-01-11T12:40:15.620Z,13.50
2019-01-11T12:42:49.832Z,13.40
2019-01-11T12:45:23.711Z,13.50
2019-01-11T12:47:59.189Z,13.50
2019-01-11T12:50:33.210Z,13.50
2019-01-11T12:53:07.070Z,13.60
2019-01-11T12:55:44.093Z,13.60
2019-01-11T12:58:17.629Z,13.60
2019-01-11T13:00:51.429Z,13.70
2019-01-11T13:03:25.378Z,13.80
2019-01-11T13:05:59.550Z,13.90
2019-01-11T13:08:34.449Z,14.00
2019-01-11T13:11:08.748Z,14.00
2019-01-11T13:13:42.660Z,14.10
2019-01-11T13:16:16.472Z,14.10
2019-01-11T13:18:50.470Z,14.20
2019-01-11T13:21:24.308Z,14.20
2019-01-11T13:24:01.435Z,14.30
2019-01-11T13:26:35.247Z,14.40
2019-01-11T13:29:09.105Z,14.50
2019-01-11T13:31:43.187Z,14.50
2019-01-11T13:34:17.372Z,14.60
2019-01-11T13:36:53.962Z,14.70
2019-01-11T13:39:27.948Z,14.90
2019-01-11T13:42:02.531Z,14.90
2019-01-11T13:44:36.258Z,15.10
2019-01-11T13:47:09.851Z,15.20
2019-01-11T13:49:43.753Z,15.30
2019-01-11T13:52:17.953Z,15.40
2019-01-11T13:54:52.098Z,15.50
2019-01-11T13:57:25.716Z,15.60
2019-01-11T14:00:04.681Z,15.80
2019-01-11T14:02:40.260Z,15.90
2019-01-11T14:05:16.633Z,16.10
2019-01-11T14:07:50.359Z,16.20
2019-01-11T14:10:25.051Z,16.40
2019-01-11T14:12:59.252Z,16.60
2019-01-11T14:15:33.055Z,16.70
2019-01-11T14:18:06.934Z,16.80
2019-01-11T14:20:40.643Z,16.90
2019-01-11T14:23:14.466Z,17.00
2019-01-11T14:25:49.901Z,17.00
2019-01-11T14:28:23.817Z,17.00
2019-01-11T14:30:58.921Z,17.10
2019-01-11T14:33:32.607Z,17.40
2019-01-11T14:36:07.913Z,17.40
2019-01-11T14:38:41.641Z,17.60
2019-01-11T14:41:16.541Z,17.90
2019-01-11T14:43:50.690Z,18.10
2019-01-11T14:46:24.636Z,18.10
2019-01-11T14:48:59.003Z,18.30
2019-01-11T14:51:32.438Z,18.40
2019-01-11T14:54:06.437Z,18.30
2019-01-11T14:56:40.114Z,18.40
2019-01-11T14:59:14.061Z,18.40
2019-01-11T15:01:50.016Z,18.60
2019-01-11T15:04:23.537Z,18.70
2019-01-11T15:06:57.393Z,18.80
2019-01-11T15:09:32.525Z,18.90
2019-01-11T15:12:06.892Z,19.20
2019-01-11T15:14:40.880Z,19.30
2019-01-11T15:17:14.797Z,19.50
2019-01-11T15:19:48.665Z,19.50
2019-01-11T15:22:26.725Z,19.50
2019-01-11T15:24:59.193Z,19.60
2019-01-11T15:27:33.089Z,19.70
2019-01-11T15:30:06.944Z,19.70
2019-01-11T15:32:40.598Z,19.70
2019-01-11T15:35:14.592Z,19.60
2019-01-11T15:37:48.794Z,19.50
2019-01-11T15:40:27.450Z,19.60
2019-01-11T15:43:01.758Z,19.50
2019-01-11T15:45:35.280Z,19.60
2019-01-11T15:48:08.973Z,19.50
2019-01-11T15:50:58.317Z,19.60
2019-01-11T15:53:39.085Z,19.50
2019-01-11T15:56:14.690Z,19.30
2019-01-11T15:58:51.087Z,19.30
2019-01-11T16:01:27.290Z,19.40
2019-01-11T16:04:01.865Z,19.30
2019-01-11T16:06:43.587Z,19.20
2019-01-11T16:10:02.340Z,19.00
2019-01-11T16:13:08.882Z,19.10
2019-01-11T16:16:23.067Z,19.40
2019-01-11T16:18:58.582Z,19.70
2019-01-11T16:21:33.762Z,19.70
2019-01-11T16:24:07.495Z,19.70
2019-01-11T16:26:42.763Z,19.50
2019-01-11T16:29:16.631Z,19.80
2019-01-11T16:31:52.980Z,19.90
2019-01-11T16:34:26.719Z,19.80
2019-01-11T16:37:00.842Z,19.90
2019-01-11T16:39:34.556Z,20.10
2019-01-11T16:42:09.954Z,20.00
2019-01-11T16:44:43.576Z,19.90
2019-01-11T16:47:18.917Z,20.00
2019-01-11T16:49:53.115Z,20.30
2019-01-11T16:52:28.020Z,20.10
2019-01-11T16:55:02.050Z,20.20
2019-01-11T16:57:37.316Z,20.30
2019-01-11T17:00:16.460Z,20.50
2019-01-11T17:02:51.017Z,20.50
2019-01-11T17:05:24.757Z,20.80
2019-01-11T17:07:58.996Z,20.90
2019-01-11T17:10:33.343Z,20.80
2019-01-11T17:13:07.220Z,20.80
2019-01-11T17:15:42.844Z,21.00
2019-01-11T17:18:19.199Z,21.10
2019-01-11T17:20:53.488Z,21.10
2019-01-11T17:23:28.459Z,21.20
2019-01-11T17:26:03.091Z,21.50
2019-01-11T17:28:37.664Z,21.70
2019-01-11T17:31:11.619Z,21.50
2019-01-11T17:33:47.239Z,21.40
2019-01-11T17:36:21.531Z,21.40
2019-01-11T17:38:56.763Z,21.50
2019-01-11T17:41:30.810Z,21.60
2019-01-11T17:44:06.122Z,21.60
2019-01-11T17:46:40.180Z,21.60
2019-01-11T17:49:14.950Z,21.80
2019-01-11T17:51:49.777Z,21.90
2019-01-11T17:54:26.007Z,22.00
2019-01-11T17:57:00.468Z,22.00
2019-01-11T17:59:34.527Z,22.30
2019-01-11T18:02:08.886Z,22.30
2019-01-11T18:04:43.219Z,22.60
2019-01-11T18:07:16.644Z,22.50
2019-01-11T18:09:50.733Z,22.40
2019-01-11T18:12:24.660Z,22.40
2019-01-11T18:14:59.189Z,22.60
2019-01-11T18:17:33.629Z,22.70
2019-01-11T18:20:08.492Z,22.30
2019-01-11T18:22:42.622Z,22.40
2019-01-11T18:25:18.984Z,22.30
2019-01-11T18:27:53.331Z,22.40
2019-01-11T18:30:33.228Z,22.70
2019-01-11T18:33:11.769Z,22.70
2019-01-11T18:35:48.067Z,22.60
2019-01-11T18:38:27.456Z,22.70
2019-01-11T18:41:05.020Z,22.80
2019-01-11T18:43:41.066Z,22.80
2019-01-11T18:46:16.515Z,23.20
2019-01-11T18:48:50.907Z,23.10
2019-01-11T18:51:26.815Z,23.10
2019-01-11T18:54:00.780Z,23.30
2019-01-11T18:56:36.324Z,23.50
2019-01-11T18:59:10.661Z,23.50
2019-01-11T19:01:49.696Z,23.40
2019-01-11T19:04:23.317Z,23.40
2019-01-11T19:06:58.135Z,23.60
2019-01-11T19:09:32.391Z,23.80
2019-01-11T19:12:06.960Z,23.80
2019-01-11T19:14:40.947Z,23.70
2019-01-11T19:17:14.866Z,23.90
2019-01-11T19:19:49.788Z,23.80
2019-01-11T19:22:23.812Z,24.10
2019-01-11T19:24:57.531Z,24.10
2019-01-11T19:27:31.726Z,24.20
2019-01-11T19:30:05.653Z,24.60
2019-01-11T19:32:39.708Z,24.40
2019-01-11T19:35:13.918Z,24.00
2019-01-11T19:37:50.014Z,24.20
2019-01-11T19:40:24.057Z,24.20
2019-01-11T19:42:58.223Z,24.30
2019-01-11T19:45:32.607Z,24.40
2019-01-11T19:48:07.163Z,24.60
2019-01-11T19:50:41.345Z,24.90
2019-01-11T19:53:15.388Z,25.20
2019-01-11T19:55:49.159Z,25.20
2019-01-11T19:58:25.203Z,25.60
2019-01-11T20:01:00.584Z,26.40
2019-01-11T20:03:36.128Z,25.90
2019-01-11T20:06:13.522Z,26.60
2019-01-11T20:08:47.859Z,27.10
2019-01-11T20:11:22.052Z,27.20
2019-01-11T20:13:58.136Z,26.50
2019-01-11T20:16:32.314Z,27.40
2019-01-11T20:19:08.089Z,27.90
2019-01-11T20:21:42.505Z,28.20
2019-01-11T20:24:19.446Z,28.40
2019-01-11T20:26:54.230Z,29.20
2019-01-11T20:29:29.464Z,29.20
2019-01-11T20:32:03.112Z,29.50
2019-01-11T20:34:41.199Z,30.00
2019-01-11T20:37:27.657Z,30.10
2019-01-11T20:40:01.988Z,29.60
2019-01-11T20:42:35.928Z,29.80
2019-01-11T20:45:13.435Z,29.30
2019-01-11T20:47:47.657Z,29.80
2019-01-11T20:50:23.704Z,29.50
2019-01-11T20:52:58.323Z,29.50
2019-01-11T20:55:34.562Z,29.00
2019-01-11T20:58:08.836Z,28.10
2019-01-11T21:00:44.042Z,27.90
2019-01-11T21:03:21.365Z,27.50
2019-01-11T21:05:58.630Z,27.90
2019-01-11T21:08:34.767Z,27.70
2019-01-11T21:11:12.306Z,26.70
2019-01-11T21:13:47.605Z,26.10
2019-01-11T21:16:27.184Z,25.90
2019-01-11T21:19:02.900Z,25.60
2019-01-11T21:21:45.430Z,25.10
2019-01-11T21:24:21.655Z,24.70
2019-01-11T21:27:05.076Z,24.60
2019-01-11T21:29:42.358Z,24.70
2019-01-11T21:32:17.914Z,24.70
2019-01-11T21:34:54.616Z,24.70
2019-01-11T21:37:30.156Z,24.60
2019-01-11T21:40:05.777Z,24.30
2019-01-11T21:42:42.041Z,24.10
2019-01-11T21:45:19.415Z,23.90
2019-01-11T21:47:58.151Z,24.00
2019-01-11T21:50:33.298Z,23.70
2019-01-11T21:53:08.784Z,23.40
2019-01-11T21:55:43.365Z,23.40
2019-01-11T21:58:20.873Z,23.20
2019-01-11T22:01:02.531Z,23.40
2019-01-11T22:03:46.504Z,23.30
2019-01-11T22:06:20.898Z,23.40
2019-01-11T22:08:55.614Z,23.30
2019-01-11T22:11:29.760Z,23.30
2019-01-11T22:14:07.528Z,23.10
2019-01-11T22:16:46.541Z,22.90
2019-01-11T22:19:22.334Z,23.00
2019-01-11T22:21:56.910Z,23.20
2019-01-11T22:24:44.414Z,23.00
2019-01-11T22:27:19.245Z,22.90
2019-01-11T22:29:56.054Z,22.80
2019-01-11T22:32:30.346Z,22.60
2019-01-11T22:35:06.315Z,22.40
2019-01-11T22:37:41.967Z,22.20
2019-01-11T22:40:22.231Z,22.10
2019-01-11T22:42:58.782Z,22.10
2019-01-11T22:45:33.081Z,22.10
2019-01-11T22:48:12.053Z,22.10
2019-01-11T22:50:49.600Z,21.80
2019-01-11T22:53:24.246Z,22.00
2019-01-11T22:56:00.457Z,22.00
2019-01-11T22:58:34.859Z,22.00
2019-01-11T23:01:35.104Z,21.70
2019-01-11T23:04:10.203Z,21.80
2019-01-11T23:07:23.236Z,21.90
2019-01-11T23:10:45.902Z,21.80
2019-01-11T23:13:22.624Z,21.80
2019-01-11T23:16:13.073Z,21.60
2019-01-11T23:18:49.185Z,21.60
2019-01-11T23:21:25.563Z,21.70
2019-01-11T23:24:02.206Z,21.50
2019-01-11T23:26:38.998Z,21.40
2019-01-11T23:29:16.234Z,21.00
2019-01-11T23:31:50.043Z,20.90
2019-01-11T23:34:24.031Z,20.80
2019-01-11T23:36:58.046Z,20.80
2019-01-11T23:39:31.932Z,20.50
2019-01-11T23:42:06.020Z,20.40
2019-01-11T23:44:39.890Z,20.20
2019-01-11T23:47:13.931Z,20.20
2019-01-11T23:49:49.367Z,20.00
2019-01-11T23:52:23.355Z,20.10
2019-01-11T23:54:56.909Z,20.00
2019-01-11T23:57:32.915Z,20.00
